createdAt,value
2018-04-18T00:00:05.285Z,11.20
2018-04-18T00:01:05.457Z,11.20
2018-04-18T00:02:05.002Z,11.20
2018-04-18T00:03:05.561Z,11.20
2018-04-18T00:04:05.964Z,11.10
2018-04-18T00:05:06.068Z,11.10
2018-04-18T00:06:05.563Z,11.10
2018-04-18T00:07:05.507Z,11.10
2018-04-18T00:08:05.468Z,11.10
2018-04-18T00:09:06.410Z,11.00
2018-04-18T00:10:09.652Z,11.00
2018-04-18T00:11:05.602Z,11.00
2018-04-18T00:12:05.827Z,11.00
2018-04-18T00:13:05.263Z,11.00
2018-04-18T00:14:04.956Z,11.00
2018-04-18T00:15:04.950Z,11.00
2018-04-18T00:16:07.170Z,10.90
2018-04-18T00:17:05.458Z,11.00
2018-04-18T00:18:05.941Z,11.00
2018-04-18T00:19:05.262Z,10.90
2018-04-18T00:20:05.527Z,10.90
2018-04-18T00:21:05.467Z,10.90
2018-04-18T00:22:05.598Z,10.90
2018-04-18T00:23:06.101Z,11.00
2018-04-18T00:24:05.528Z,10.90
2018-04-18T00:25:05.405Z,10.90
2018-04-18T00:26:09.975Z,10.90
2018-04-18T00:27:04.964Z,10.90
2018-04-18T00:28:05.158Z,10.80
2018-04-18T00:29:05.991Z,10.80
2018-04-18T00:30:05.498Z,10.80
2018-04-18T00:31:05.009Z,10.80
2018-04-18T00:32:05.582Z,10.80
2018-04-18T00:33:10.420Z,10.70
2018-04-18T00:34:05.334Z,10.70
2018-04-18T00:35:06.288Z,10.70
2018-04-18T00:36:05.358Z,10.70
2018-04-18T00:37:06.581Z,10.70
2018-04-18T00:38:05.312Z,10.70
2018-04-18T00:39:05.498Z,10.60
2018-04-18T00:40:06.129Z,10.60
2018-04-18T00:41:05.045Z,10.60
2018-04-18T00:42:05.354Z,10.60
2018-04-18T00:43:05.560Z,10.60
2018-04-18T00:44:05.187Z,10.60
2018-04-18T00:45:05.958Z,10.60
2018-04-18T00:46:05.962Z,10.60
2018-04-18T00:47:05.636Z,10.60
2018-04-18T00:48:05.285Z,10.60
2018-04-18T00:49:10.206Z,10.60
2018-04-18T00:50:05.604Z,10.60
2018-04-18T00:51:05.299Z,10.50
2018-04-18T00:52:05.654Z,10.50
2018-04-18T00:53:05.497Z,10.50
2018-04-18T00:54:06.292Z,10.50
2018-04-18T00:55:05.577Z,10.50
2018-04-18T00:56:05.004Z,10.50
2018-04-18T00:57:05.891Z,10.40
2018-04-18T00:58:05.684Z,10.40
2018-04-18T00:59:05.622Z,10.40
2018-04-18T01:00:05.555Z,10.40
2018-04-18T01:01:05.384Z,10.40
2018-04-18T01:02:05.221Z,10.40
2018-04-18T01:03:05.498Z,10.40
2018-04-18T01:04:05.202Z,10.40
2018-04-18T01:05:05.611Z,10.40
2018-04-18T01:06:05.009Z,10.40
2018-04-18T01:07:06.156Z,10.40
2018-04-18T01:08:08.909Z,10.40
2018-04-18T01:09:05.198Z,10.30
2018-04-18T01:10:05.509Z,10.30
2018-04-18T01:11:05.208Z,10.30
2018-04-18T01:12:04.933Z,10.30
2018-04-18T01:13:05.311Z,10.20
2018-04-18T01:14:05.530Z,10.20
2018-04-18T01:15:06.776Z,10.20
2018-04-18T01:16:05.021Z,10.20
2018-04-18T01:17:05.369Z,10.10
2018-04-18T01:18:05.023Z,10.10
2018-04-18T01:19:05.527Z,10.10
2018-04-18T01:20:06.033Z,10.10
2018-04-18T01:21:10.005Z,10.00
2018-04-18T01:22:05.004Z,10.00
2018-04-18T01:23:05.003Z,10.00
2018-04-18T01:24:05.527Z,10.00
2018-04-18T01:25:05.025Z,10.00
2018-04-18T01:26:04.966Z,10.00
2018-04-18T01:27:05.021Z,10.00
2018-04-18T01:28:04.720Z,10.00
2018-04-18T01:29:05.464Z,10.00
2018-04-18T01:30:05.122Z,10.00
2018-04-18T01:31:05.573Z,9.90
2018-04-18T01:32:05.585Z,10.00
2018-04-18T01:33:05.527Z,9.90
2018-04-18T01:34:05.557Z,9.90
2018-04-18T01:35:05.526Z,9.90
2018-04-18T01:36:05.910Z,9.90
2018-04-18T01:37:05.591Z,9.90
2018-04-18T01:38:05.089Z,9.90
2018-04-18T01:39:06.236Z,9.90
2018-04-18T01:40:04.988Z,9.90
2018-04-18T01:41:05.465Z,9.90
2018-04-18T01:42:05.641Z,9.90
2018-04-18T01:43:05.527Z,9.80
2018-04-18T01:44:05.027Z,9.80
2018-04-18T01:45:07.777Z,9.80
2018-04-18T01:46:04.710Z,9.80
2018-04-18T01:47:09.767Z,9.80
2018-04-18T01:48:06.055Z,9.80
2018-04-18T01:49:05.352Z,9.80
2018-04-18T01:50:05.537Z,9.80
2018-04-18T01:51:05.576Z,9.80
2018-04-18T01:52:05.603Z,9.80
2018-04-18T01:53:05.597Z,9.80
2018-04-18T01:54:06.047Z,9.80
2018-04-18T01:55:05.033Z,9.80
2018-04-18T01:56:06.863Z,9.80
2018-04-18T01:57:06.513Z,9.80
2018-04-18T01:58:06.346Z,9.80
2018-04-18T01:59:05.557Z,9.80
2018-04-18T02:00:05.424Z,9.80
2018-04-18T02:01:05.660Z,9.80
2018-04-18T02:02:05.118Z,9.70
2018-04-18T02:03:06.036Z,9.70
2018-04-18T02:04:05.915Z,9.70
2018-04-18T02:05:05.062Z,9.70
2018-04-18T02:06:05.041Z,9.70
2018-04-18T02:07:05.059Z,9.70
2018-04-18T02:08:05.632Z,9.70
2018-04-18T02:09:05.685Z,9.60
2018-04-18T02:10:05.580Z,9.60
2018-04-18T02:11:05.050Z,9.60
2018-04-18T02:12:05.566Z,9.60
2018-04-18T02:13:05.682Z,9.60
2018-04-18T02:14:05.641Z,9.60
2018-04-18T02:15:05.556Z,9.60
2018-04-18T02:16:05.555Z,9.60
2018-04-18T02:17:05.071Z,9.50
2018-04-18T02:18:06.194Z,9.50
2018-04-18T02:19:05.717Z,9.50
2018-04-18T02:20:06.197Z,9.50
2018-04-18T02:21:05.575Z,9.50
2018-04-18T02:22:05.392Z,9.50
2018-04-18T02:23:05.577Z,9.50
2018-04-18T02:24:10.114Z,9.50
2018-04-18T02:25:05.081Z,9.40
2018-04-18T02:26:05.585Z,9.40
2018-04-18T02:27:05.333Z,9.40
2018-04-18T02:28:05.693Z,9.40
2018-04-18T02:29:05.070Z,9.40
2018-04-18T02:30:05.194Z,9.40
2018-04-18T02:31:06.206Z,9.40
2018-04-18T02:32:05.576Z,9.40
2018-04-18T02:33:05.203Z,9.40
2018-04-18T02:34:05.155Z,9.40
2018-04-18T02:35:05.033Z,9.40
2018-04-18T02:36:05.473Z,9.30
2018-04-18T02:37:05.070Z,9.30
2018-04-18T02:38:05.488Z,9.30
2018-04-18T02:39:05.154Z,9.30
2018-04-18T02:40:05.069Z,9.30
2018-04-18T02:41:05.586Z,9.30
2018-04-18T02:42:05.604Z,9.20
2018-04-18T02:43:05.398Z,9.20
2018-04-18T02:44:06.068Z,9.20
2018-04-18T02:45:05.976Z,9.20
2018-04-18T02:46:05.396Z,9.20
2018-04-18T02:47:05.649Z,9.20
2018-04-18T02:48:05.594Z,9.10
2018-04-18T02:49:05.603Z,9.10
2018-04-18T02:50:10.011Z,9.10
2018-04-18T02:51:05.158Z,9.10
2018-04-18T02:52:05.230Z,9.10
2018-04-18T02:53:05.596Z,9.10
2018-04-18T02:54:05.463Z,9.10
2018-04-18T02:55:05.685Z,9.10
2018-04-18T02:56:05.206Z,9.10
2018-04-18T02:57:05.603Z,9.10
2018-04-18T02:58:05.096Z,9.10
2018-04-18T02:59:05.294Z,9.10
2018-04-18T03:00:05.613Z,9.10
2018-04-18T03:01:05.511Z,9.10
2018-04-18T03:02:06.053Z,9.10
2018-04-18T03:03:05.408Z,9.00
2018-04-18T03:04:05.604Z,9.00
2018-04-18T03:05:05.420Z,9.00
2018-04-18T03:06:09.638Z,9.00
2018-04-18T03:07:05.613Z,9.00
2018-04-18T03:08:05.167Z,9.00
2018-04-18T03:09:05.752Z,9.00
2018-04-18T03:10:05.643Z,9.00
2018-04-18T03:11:05.185Z,9.00
2018-04-18T03:12:05.768Z,9.00
2018-04-18T03:13:10.184Z,9.00
2018-04-18T03:14:06.832Z,9.00
2018-04-18T03:15:04.765Z,9.00
2018-04-18T03:16:06.801Z,9.00
2018-04-18T03:17:05.622Z,9.00
2018-04-18T03:18:05.485Z,9.00
2018-04-18T03:19:05.107Z,9.00
2018-04-18T03:20:04.804Z,9.00
2018-04-18T03:21:05.499Z,9.00
2018-04-18T03:22:04.793Z,9.00
2018-04-18T03:23:05.626Z,9.00
2018-04-18T03:24:05.323Z,9.00
2018-04-18T03:25:04.887Z,9.00
2018-04-18T03:26:05.689Z,9.00
2018-04-18T03:27:05.436Z,9.00
2018-04-18T03:28:05.832Z,9.00
2018-04-18T03:29:05.369Z,9.00
2018-04-18T03:30:05.450Z,9.00
2018-04-18T03:31:05.427Z,8.90
2018-04-18T03:32:05.441Z,8.90
2018-04-18T03:33:05.261Z,8.90
2018-04-18T03:34:05.119Z,8.90
2018-04-18T03:35:04.851Z,8.90
2018-04-18T03:36:05.648Z,8.90
2018-04-18T03:37:05.011Z,8.90
2018-04-18T03:38:05.633Z,8.90
2018-04-18T03:39:05.650Z,8.90
2018-04-18T03:40:05.149Z,8.90
2018-04-18T03:41:05.226Z,8.90
2018-04-18T03:42:05.149Z,8.90
2018-04-18T03:43:04.816Z,8.80
2018-04-18T03:44:05.729Z,8.80
2018-04-18T03:45:05.650Z,8.80
2018-04-18T03:46:05.458Z,8.80
2018-04-18T03:47:10.509Z,8.70
2018-04-18T03:48:05.468Z,8.70
2018-04-18T03:49:06.745Z,8.70
2018-04-18T03:50:05.571Z,8.70
2018-04-18T03:51:05.794Z,8.70
2018-04-18T03:52:05.161Z,8.70
2018-04-18T03:53:05.254Z,8.70
2018-04-18T03:54:05.343Z,8.70
2018-04-18T03:55:05.055Z,8.70
2018-04-18T03:56:05.653Z,8.70
2018-04-18T03:57:05.229Z,8.70
2018-04-18T03:58:05.353Z,8.70
2018-04-18T03:59:05.808Z,8.70
2018-04-18T04:00:05.672Z,8.70
2018-04-18T04:01:05.423Z,8.70
2018-04-18T04:02:05.034Z,8.70
2018-04-18T04:03:05.242Z,8.70
2018-04-18T04:04:06.150Z,8.60
2018-04-18T04:05:06.712Z,8.60
2018-04-18T04:06:05.118Z,8.60
2018-04-18T04:07:05.354Z,8.60
2018-04-18T04:08:05.790Z,8.60
2018-04-18T04:09:05.197Z,8.60
2018-04-18T04:10:05.791Z,8.60
2018-04-18T04:11:05.781Z,8.60
2018-04-18T04:12:04.848Z,8.50
2018-04-18T04:13:06.283Z,8.50
2018-04-18T04:14:05.251Z,8.50
2018-04-18T04:15:05.703Z,8.50
2018-04-18T04:16:04.880Z,8.50
2018-04-18T04:17:05.396Z,8.50
2018-04-18T04:18:05.364Z,8.50
2018-04-18T04:19:05.741Z,8.50
2018-04-18T04:20:05.879Z,8.50
2018-04-18T04:21:05.988Z,8.50
2018-04-18T04:22:05.716Z,8.50
2018-04-18T04:23:04.944Z,8.50
2018-04-18T04:24:05.694Z,8.50
2018-04-18T04:25:05.817Z,8.50
2018-04-18T04:26:05.702Z,8.50
2018-04-18T04:27:06.825Z,8.50
2018-04-18T04:28:05.490Z,8.50
2018-04-18T04:29:05.783Z,8.50
2018-04-18T04:30:05.302Z,8.50
2018-04-18T04:31:05.722Z,8.50
2018-04-18T04:32:05.510Z,8.60
2018-04-18T04:33:05.696Z,8.60
2018-04-18T04:34:05.277Z,8.60
2018-04-18T04:35:04.833Z,8.60
2018-04-18T04:36:05.279Z,8.60
2018-04-18T04:37:05.848Z,8.60
2018-04-18T04:38:04.908Z,8.60
2018-04-18T04:39:05.251Z,8.60
2018-04-18T04:40:10.518Z,8.60
2018-04-18T04:41:10.550Z,8.60
2018-04-18T04:42:05.704Z,8.60
2018-04-18T04:43:05.098Z,8.60
2018-04-18T04:44:05.511Z,8.60
2018-04-18T04:45:04.991Z,8.60
2018-04-18T04:46:05.777Z,8.70
2018-04-18T04:47:05.507Z,8.70
2018-04-18T04:48:05.774Z,8.70
2018-04-18T04:49:05.405Z,8.80
2018-04-18T04:50:05.407Z,8.80
2018-04-18T04:51:05.717Z,8.90
2018-04-18T04:52:05.221Z,8.90
2018-04-18T04:53:05.780Z,9.00
2018-04-18T04:54:06.880Z,9.00
2018-04-18T04:55:05.571Z,9.10
2018-04-18T04:56:05.280Z,9.10
2018-04-18T04:57:05.761Z,9.20
2018-04-18T04:58:05.231Z,9.30
2018-04-18T04:59:05.591Z,9.40
2018-04-18T05:00:04.917Z,9.50
2018-04-18T05:01:05.252Z,9.60
2018-04-18T05:02:05.807Z,9.70
2018-04-18T05:03:05.783Z,9.80
2018-04-18T05:04:06.957Z,9.90
2018-04-18T05:05:04.904Z,10.00
2018-04-18T05:06:15.273Z,10.10
2018-04-18T05:07:05.220Z,10.20
2018-04-18T05:08:05.457Z,10.30
2018-04-18T05:09:05.716Z,10.50
2018-04-18T05:10:05.539Z,10.60
2018-04-18T05:11:05.511Z,10.70
2018-04-18T05:12:05.182Z,10.80
2018-04-18T05:13:05.766Z,10.90
2018-04-18T05:14:05.541Z,11.00
2018-04-18T05:15:05.472Z,11.10
2018-04-18T05:16:07.561Z,11.30
2018-04-18T05:17:05.534Z,11.30
2018-04-18T05:18:04.991Z,11.50
2018-04-18T05:19:05.561Z,11.60
2018-04-18T05:20:05.053Z,11.70
2018-04-18T05:21:05.232Z,11.80
2018-04-18T05:22:10.593Z,11.90
2018-04-18T05:23:05.568Z,12.00
2018-04-18T05:24:04.925Z,12.20
2018-04-18T05:25:05.551Z,12.30
2018-04-18T05:26:05.795Z,12.40
2018-04-18T05:27:05.772Z,12.50
2018-04-18T05:28:05.557Z,12.60
2018-04-18T05:29:08.048Z,12.80
2018-04-18T05:30:05.324Z,12.90
2018-04-18T05:31:05.552Z,13.00
2018-04-18T05:32:05.439Z,13.20
2018-04-18T05:33:05.877Z,13.30
2018-04-18T05:34:04.959Z,13.40
2018-04-18T05:35:04.933Z,13.60
2018-04-18T05:36:05.776Z,13.70
2018-04-18T05:37:05.041Z,13.80
2018-04-18T05:38:05.825Z,13.90
2018-04-18T05:39:04.908Z,14.10
2018-04-18T05:40:05.791Z,14.20
2018-04-18T05:41:05.008Z,14.30
2018-04-18T05:42:05.778Z,14.40
2018-04-18T05:43:05.819Z,14.50
2018-04-18T05:44:05.562Z,14.60
2018-04-18T05:45:05.281Z,14.70
2018-04-18T05:46:05.322Z,14.90
2018-04-18T05:47:05.566Z,15.00
2018-04-18T05:48:04.906Z,15.00
2018-04-18T05:49:05.903Z,15.20
2018-04-18T05:50:05.757Z,15.20
2018-04-18T05:51:05.351Z,15.30
2018-04-18T05:52:05.014Z,15.40
2018-04-18T05:53:07.518Z,15.50
2018-04-18T05:54:06.951Z,15.60
2018-04-18T05:55:05.840Z,15.70
2018-04-18T05:56:05.285Z,15.80
2018-04-18T05:57:05.274Z,15.80
2018-04-18T05:58:06.081Z,15.90
2018-04-18T05:59:05.607Z,16.00
2018-04-18T06:00:05.021Z,16.00
2018-04-18T06:01:05.271Z,16.10
2018-04-18T06:02:05.275Z,16.20
2018-04-18T06:03:05.873Z,16.20
2018-04-18T06:04:09.967Z,16.30
2018-04-18T06:05:06.887Z,16.30
2018-04-18T06:06:06.298Z,16.40
2018-04-18T06:07:06.639Z,16.50
2018-04-18T06:08:05.003Z,16.50
2018-04-18T06:09:04.976Z,16.60
2018-04-18T06:10:05.978Z,16.60
2018-04-18T06:11:05.838Z,16.70
2018-04-18T06:12:05.348Z,16.70
2018-04-18T06:13:07.192Z,16.80
2018-04-18T06:14:05.289Z,16.80
2018-04-18T06:15:10.320Z,16.90
2018-04-18T06:16:05.871Z,17.00
2018-04-18T06:17:05.790Z,17.00
2018-04-18T06:18:05.604Z,17.10
2018-04-18T06:19:05.855Z,17.20
2018-04-18T06:20:05.911Z,17.20
2018-04-18T06:21:05.791Z,17.30
2018-04-18T06:22:05.598Z,17.30
2018-04-18T06:23:06.906Z,17.40
2018-04-18T06:24:05.615Z,17.50
2018-04-18T06:25:05.380Z,17.50
2018-04-18T06:26:04.673Z,17.60
2018-04-18T06:27:05.607Z,17.60
2018-04-18T06:28:05.884Z,17.70
2018-04-18T06:29:05.806Z,17.80
2018-04-18T06:30:05.385Z,17.80
2018-04-18T06:31:05.817Z,17.80
2018-04-18T06:32:10.552Z,17.90
2018-04-18T06:33:05.804Z,17.90
2018-04-18T06:34:05.611Z,18.00
2018-04-18T06:35:05.061Z,18.00
2018-04-18T06:36:04.988Z,18.00
2018-04-18T06:37:05.835Z,18.00
2018-04-18T06:38:05.812Z,18.10
2018-04-18T06:39:05.648Z,18.10
2018-04-18T06:40:05.208Z,18.10
2018-04-18T06:41:05.750Z,18.20
2018-04-18T06:42:04.707Z,18.20
2018-04-18T06:43:05.814Z,18.30
2018-04-18T06:44:05.813Z,18.30
2018-04-18T06:45:05.217Z,18.40
2018-04-18T06:46:05.626Z,18.40
2018-04-18T06:47:05.574Z,18.50
2018-04-18T06:48:05.319Z,18.50
2018-04-18T06:49:05.028Z,18.50
2018-04-18T06:50:05.688Z,18.60
2018-04-18T06:51:05.214Z,18.60
2018-04-18T06:52:05.318Z,18.70
2018-04-18T06:53:05.833Z,18.70
2018-04-18T06:54:05.825Z,18.70
2018-04-18T06:55:05.587Z,18.80
2018-04-18T06:56:05.757Z,18.80
2018-04-18T06:57:07.028Z,18.80
2018-04-18T06:58:05.525Z,18.90
2018-04-18T06:59:05.638Z,18.90
2018-04-18T07:00:05.339Z,18.90
2018-04-18T07:01:10.712Z,18.90
2018-04-18T07:02:05.721Z,18.90
2018-04-18T07:03:06.352Z,18.90
2018-04-18T07:04:05.529Z,18.90
2018-04-18T07:05:05.844Z,19.00
2018-04-18T07:06:06.131Z,19.00
2018-04-18T07:07:05.592Z,19.00
2018-04-18T07:08:05.525Z,19.10
2018-04-18T07:09:05.224Z,19.10
2018-04-18T07:10:05.542Z,19.20
2018-04-18T07:11:05.035Z,19.20
2018-04-18T07:12:05.896Z,19.20
2018-04-18T07:13:05.868Z,19.20
2018-04-18T07:14:05.441Z,19.30
2018-04-18T07:15:05.399Z,19.30
2018-04-18T07:16:05.846Z,19.30
2018-04-18T07:17:05.374Z,19.30
2018-04-18T07:18:05.413Z,19.30
2018-04-18T07:19:05.547Z,19.30
2018-04-18T07:20:06.942Z,19.30
2018-04-18T07:21:05.053Z,19.40
2018-04-18T07:22:05.857Z,19.40
2018-04-18T07:23:05.581Z,19.40
2018-04-18T07:24:05.134Z,19.40
2018-04-18T07:25:08.514Z,19.50
2018-04-18T07:26:06.033Z,19.50
2018-04-18T07:27:05.371Z,19.50
2018-04-18T07:28:05.494Z,19.50
2018-04-18T07:29:05.928Z,19.50
2018-04-18T07:30:09.933Z,19.60
2018-04-18T07:31:04.752Z,19.60
2018-04-18T07:32:05.370Z,19.60
2018-04-18T07:33:10.396Z,19.70
2018-04-18T07:34:06.683Z,19.70
2018-04-18T07:35:05.653Z,19.70
2018-04-18T07:36:05.688Z,19.80
2018-04-18T07:37:05.866Z,19.80
2018-04-18T07:38:05.610Z,19.80
2018-04-18T07:39:05.327Z,19.80
2018-04-18T07:40:05.406Z,19.90
2018-04-18T07:41:05.887Z,19.90
2018-04-18T07:42:05.713Z,19.90
2018-04-18T07:43:05.907Z,20.00
2018-04-18T07:44:10.401Z,20.00
2018-04-18T07:45:05.258Z,20.00
2018-04-18T07:46:05.258Z,20.00
2018-04-18T07:47:05.691Z,20.00
2018-04-18T07:48:05.760Z,20.10
2018-04-18T07:49:05.589Z,20.10
2018-04-18T07:50:04.775Z,20.10
2018-04-18T07:51:05.694Z,20.10
2018-04-18T07:52:05.691Z,20.20
2018-04-18T07:53:05.443Z,20.20
2018-04-18T07:54:05.471Z,20.20
2018-04-18T07:55:05.076Z,20.20
2018-04-18T07:56:05.695Z,20.20
2018-04-18T07:57:04.763Z,20.20
2018-04-18T07:58:05.623Z,20.20
2018-04-18T07:59:05.075Z,20.20
2018-04-18T08:00:06.296Z,20.20
2018-04-18T08:01:07.203Z,20.20
2018-04-18T08:02:05.393Z,20.10
2018-04-18T08:03:05.977Z,20.10
2018-04-18T08:04:07.024Z,20.10
2018-04-18T08:05:05.083Z,20.10
2018-04-18T08:06:06.998Z,20.20
2018-04-18T08:07:08.184Z,20.20
2018-04-18T08:08:04.774Z,20.20
2018-04-18T08:09:05.151Z,20.20
2018-04-18T08:10:06.074Z,20.20
2018-04-18T08:11:04.849Z,20.10
2018-04-18T08:12:05.218Z,20.20
2018-04-18T08:13:05.724Z,20.20
2018-04-18T08:14:06.803Z,20.20
2018-04-18T08:15:07.181Z,20.20
2018-04-18T08:16:05.678Z,20.30
2018-04-18T08:17:05.496Z,20.30
2018-04-18T08:18:04.796Z,20.30
2018-04-18T08:19:05.978Z,20.30
2018-04-18T08:20:06.351Z,20.40
2018-04-18T08:21:10.481Z,20.40
2018-04-18T08:22:05.411Z,20.50
2018-04-18T08:23:05.488Z,20.50
2018-04-18T08:24:05.490Z,20.50
2018-04-18T08:25:05.930Z,20.60
2018-04-18T08:26:05.122Z,20.60
2018-04-18T08:27:05.315Z,20.60
2018-04-18T08:28:05.101Z,20.70
2018-04-18T08:29:06.096Z,20.70
2018-04-18T08:30:04.913Z,20.70
2018-04-18T08:31:05.732Z,20.80
2018-04-18T08:32:06.431Z,20.80
2018-04-18T08:33:10.025Z,20.80
2018-04-18T08:34:05.121Z,20.80
2018-04-18T08:35:04.801Z,20.80
2018-04-18T08:36:05.669Z,20.90
2018-04-18T08:37:05.749Z,20.90
2018-04-18T08:38:04.815Z,20.90
2018-04-18T08:39:05.693Z,21.00
2018-04-18T08:40:05.327Z,21.00
2018-04-18T08:41:05.681Z,21.00
2018-04-18T08:42:05.112Z,21.10
2018-04-18T08:43:05.431Z,21.10
2018-04-18T08:44:04.813Z,21.10
2018-04-18T08:45:05.638Z,21.10
2018-04-18T08:46:05.958Z,21.20
2018-04-18T08:47:05.870Z,21.20
2018-04-18T08:48:05.773Z,21.20
2018-04-18T08:49:05.932Z,21.30
2018-04-18T08:50:04.823Z,21.30
2018-04-18T08:51:05.199Z,21.30
2018-04-18T08:52:05.057Z,21.30
2018-04-18T08:53:05.942Z,21.40
2018-04-18T08:54:05.942Z,21.40
2018-04-18T08:55:05.943Z,21.40
2018-04-18T08:56:05.641Z,21.50
2018-04-18T08:57:04.834Z,21.50
2018-04-18T08:58:05.665Z,21.50
2018-04-18T08:59:05.631Z,21.50
2018-04-18T09:00:07.368Z,21.60
2018-04-18T09:01:06.726Z,21.60
2018-04-18T09:02:06.506Z,21.60
2018-04-18T09:03:06.136Z,21.60
2018-04-18T09:04:05.453Z,21.60
2018-04-18T09:05:05.978Z,21.60
2018-04-18T09:06:05.837Z,21.70
2018-04-18T09:07:05.350Z,21.70
2018-04-18T09:08:05.077Z,21.70
2018-04-18T09:09:04.873Z,21.70
2018-04-18T09:10:05.837Z,21.80
2018-04-18T09:11:06.327Z,21.80
2018-04-18T09:12:05.661Z,21.80
2018-04-18T09:13:05.430Z,21.90
2018-04-18T09:14:04.837Z,21.90
2018-04-18T09:15:05.689Z,21.90
2018-04-18T09:16:06.295Z,22.00
2018-04-18T09:17:05.184Z,22.00
2018-04-18T09:18:06.974Z,22.00
2018-04-18T09:19:06.080Z,22.10
2018-04-18T09:20:05.355Z,22.10
2018-04-18T09:21:05.969Z,22.10
2018-04-18T09:22:10.854Z,22.20
2018-04-18T09:23:05.340Z,22.20
2018-04-18T09:24:04.841Z,22.20
2018-04-18T09:25:05.227Z,22.30
2018-04-18T09:26:05.418Z,22.20
2018-04-18T09:27:04.857Z,22.30
2018-04-18T09:28:05.685Z,22.30
2018-04-18T09:29:06.831Z,22.30
2018-04-18T09:30:05.404Z,22.30
2018-04-18T09:31:06.009Z,22.30
2018-04-18T09:32:05.733Z,22.30
2018-04-18T09:33:08.483Z,22.30
2018-04-18T09:34:05.150Z,22.40
2018-04-18T09:35:05.533Z,22.40
2018-04-18T09:36:05.207Z,22.40
2018-04-18T09:37:06.160Z,22.40
2018-04-18T09:38:05.988Z,22.40
2018-04-18T09:39:06.480Z,22.40
2018-04-18T09:40:05.237Z,22.50
2018-04-18T09:41:09.824Z,22.50
2018-04-18T09:42:06.058Z,22.50
2018-04-18T09:43:05.976Z,22.50
2018-04-18T09:44:04.860Z,22.50
2018-04-18T09:45:05.729Z,22.60
2018-04-18T09:46:05.988Z,22.60
2018-04-18T09:47:05.923Z,22.60
2018-04-18T09:48:04.876Z,22.70
2018-04-18T09:49:05.831Z,22.70
2018-04-18T09:50:05.886Z,22.80
2018-04-18T09:51:04.874Z,22.80
2018-04-18T09:52:05.217Z,22.80
2018-04-18T09:53:05.477Z,22.80
2018-04-18T09:54:04.861Z,22.80
2018-04-18T09:55:06.197Z,22.90
2018-04-18T09:56:05.111Z,22.90
2018-04-18T09:57:06.148Z,22.90
2018-04-18T09:58:05.186Z,22.90
2018-04-18T09:59:05.691Z,22.90
2018-04-18T10:00:06.173Z,22.90
2018-04-18T10:01:05.398Z,23.00
2018-04-18T10:02:05.182Z,23.00
2018-04-18T10:03:05.996Z,23.00
2018-04-18T10:04:05.513Z,23.10
2018-04-18T10:05:05.583Z,23.10
2018-04-18T10:06:06.016Z,23.10
2018-04-18T10:07:05.266Z,23.10
2018-04-18T10:08:05.996Z,23.10
2018-04-18T10:09:05.503Z,23.10
2018-04-18T10:10:05.757Z,23.10
2018-04-18T10:11:05.873Z,23.00
2018-04-18T10:12:05.302Z,23.00
2018-04-18T10:13:05.266Z,23.00
2018-04-18T10:14:06.015Z,23.00
2018-04-18T10:15:05.386Z,23.10
2018-04-18T10:16:05.609Z,23.10
2018-04-18T10:17:05.501Z,23.10
2018-04-18T10:18:06.246Z,23.20
2018-04-18T10:19:05.262Z,23.20
2018-04-18T10:20:05.196Z,23.20
2018-04-18T10:21:05.141Z,23.20
2018-04-18T10:22:05.933Z,23.20
2018-04-18T10:23:05.605Z,23.20
2018-04-18T10:24:05.204Z,23.30
2018-04-18T10:25:05.594Z,23.30
2018-04-18T10:26:06.042Z,23.30
2018-04-18T10:27:05.726Z,23.30
2018-04-18T10:28:05.921Z,23.20
2018-04-18T10:29:05.481Z,23.20
2018-04-18T10:30:05.272Z,23.20
2018-04-18T10:31:06.184Z,23.30
2018-04-18T10:32:04.897Z,23.30
2018-04-18T10:33:05.158Z,23.30
2018-04-18T10:34:06.252Z,23.30
2018-04-18T10:35:08.429Z,23.40
2018-04-18T10:36:05.155Z,23.40
2018-04-18T10:37:05.243Z,23.40
2018-04-18T10:38:05.379Z,23.40
2018-04-18T10:39:05.610Z,23.40
2018-04-18T10:40:04.902Z,23.40
2018-04-18T10:41:05.169Z,23.50
2018-04-18T10:42:05.434Z,23.50
2018-04-18T10:43:06.047Z,23.50
2018-04-18T10:44:05.477Z,23.50
2018-04-18T10:45:06.628Z,23.50
2018-04-18T10:46:06.813Z,23.50
2018-04-18T10:47:05.603Z,23.60
2018-04-18T10:48:05.425Z,23.60
2018-04-18T10:49:06.046Z,23.60
2018-04-18T10:50:06.127Z,23.60
2018-04-18T10:51:05.235Z,23.60
2018-04-18T10:52:05.011Z,23.60
2018-04-18T10:53:05.484Z,23.60
2018-04-18T10:54:06.055Z,23.60
2018-04-18T10:55:04.860Z,23.70
2018-04-18T10:56:06.059Z,23.60
2018-04-18T10:57:05.230Z,23.70
2018-04-18T10:58:05.518Z,23.60
2018-04-18T10:59:05.011Z,23.60
2018-04-18T11:00:05.643Z,23.60
2018-04-18T11:01:05.261Z,23.60
2018-04-18T11:02:04.954Z,23.60
2018-04-18T11:03:05.776Z,23.60
2018-04-18T11:04:05.869Z,23.50
2018-04-18T11:05:05.374Z,23.50
2018-04-18T11:06:06.889Z,23.50
2018-04-18T11:07:05.458Z,23.50
2018-04-18T11:08:05.437Z,23.50
2018-04-18T11:09:05.635Z,23.50
2018-04-18T11:10:06.144Z,23.60
2018-04-18T11:11:06.090Z,23.60
2018-04-18T11:12:05.604Z,23.60
2018-04-18T11:13:06.072Z,23.60
2018-04-18T11:14:05.256Z,23.60
2018-04-18T11:15:05.024Z,23.60
2018-04-18T11:16:05.320Z,23.60
2018-04-18T11:17:04.975Z,23.60
2018-04-18T11:18:05.904Z,23.60
2018-04-18T11:19:05.044Z,23.60
2018-04-18T11:20:05.014Z,23.60
2018-04-18T11:21:05.345Z,23.70
2018-04-18T11:22:05.797Z,23.70
2018-04-18T11:23:05.786Z,23.70
2018-04-18T11:24:04.922Z,23.70
2018-04-18T11:25:05.353Z,23.70
2018-04-18T11:26:06.408Z,23.70
2018-04-18T11:27:04.948Z,23.70
2018-04-18T11:28:05.459Z,23.70
2018-04-18T11:29:05.645Z,23.70
2018-04-18T11:30:05.477Z,23.70
2018-04-18T11:31:06.083Z,23.70
2018-04-18T11:32:05.588Z,23.70
2018-04-18T11:33:05.168Z,23.70
2018-04-18T11:34:06.891Z,23.70
2018-04-18T11:35:05.687Z,23.70
2018-04-18T11:36:05.473Z,23.70
2018-04-18T11:37:05.226Z,23.70
2018-04-18T11:38:05.603Z,23.70
2018-04-18T11:39:10.622Z,23.70
2018-04-18T11:40:05.296Z,23.70
2018-04-18T11:41:06.386Z,23.70
2018-04-18T11:42:05.615Z,23.70
2018-04-18T11:43:05.537Z,23.70
2018-04-18T11:44:09.716Z,23.70
2018-04-18T11:45:05.565Z,23.70
2018-04-18T11:46:04.976Z,23.70
2018-04-18T11:47:05.314Z,23.70
2018-04-18T11:48:04.924Z,23.70
2018-04-18T11:49:05.575Z,23.70
2018-04-18T11:50:05.350Z,23.70
2018-04-18T11:51:05.404Z,23.70
2018-04-18T11:52:05.396Z,23.70
2018-04-18T11:53:05.306Z,23.70
2018-04-18T11:54:05.293Z,23.70
2018-04-18T11:55:06.274Z,23.70
2018-04-18T11:56:05.630Z,23.70
2018-04-18T11:57:05.684Z,23.70
2018-04-18T11:58:06.310Z,23.70
2018-04-18T11:59:05.816Z,23.70
2018-04-18T12:00:05.059Z,23.80
2018-04-18T12:01:05.397Z,23.80
2018-04-18T12:02:05.678Z,23.80
2018-04-18T12:03:06.233Z,23.80
2018-04-18T12:04:05.613Z,23.80
2018-04-18T12:05:05.233Z,23.80
2018-04-18T12:06:05.735Z,23.80
2018-04-18T12:07:10.682Z,23.80
2018-04-18T12:08:05.382Z,23.80
2018-04-18T12:09:05.201Z,23.80
2018-04-18T12:10:05.251Z,23.80
2018-04-18T12:11:06.196Z,23.80
2018-04-18T12:12:05.508Z,23.80
2018-04-18T12:13:07.399Z,23.80
2018-04-18T12:14:06.779Z,23.80
2018-04-18T12:15:10.684Z,23.90
2018-04-18T12:16:05.964Z,23.90
2018-04-18T12:17:05.356Z,23.90
2018-04-18T12:18:05.657Z,23.80
2018-04-18T12:19:05.373Z,23.80
2018-04-18T12:20:05.336Z,23.80
2018-04-18T12:21:11.000Z,23.80
2018-04-18T12:22:10.049Z,23.80
2018-04-18T12:23:06.637Z,23.80
2018-04-18T12:24:04.969Z,23.80
2018-04-18T12:25:05.341Z,23.80
2018-04-18T12:26:05.718Z,23.90
2018-04-18T12:27:07.083Z,23.90
2018-04-18T12:28:05.750Z,23.90
2018-04-18T12:29:05.049Z,23.90
2018-04-18T12:30:05.404Z,23.90
2018-04-18T12:31:05.217Z,23.90
2018-04-18T12:32:05.717Z,23.90
2018-04-18T12:33:05.756Z,23.90
2018-04-18T12:34:06.984Z,23.90
2018-04-18T12:35:07.895Z,23.90
2018-04-18T12:36:05.184Z,23.90
2018-04-18T12:37:05.111Z,23.90
2018-04-18T12:38:06.809Z,24.00
2018-04-18T12:39:05.425Z,24.00
2018-04-18T12:40:05.530Z,24.00
2018-04-18T12:41:05.042Z,24.00
2018-04-18T12:42:05.716Z,24.00
2018-04-18T12:43:05.047Z,24.00
2018-04-18T12:44:06.332Z,24.00
2018-04-18T12:45:06.902Z,23.90
2018-04-18T12:46:05.068Z,24.00
2018-04-18T12:47:06.642Z,23.90
2018-04-18T12:48:05.134Z,23.90
2018-04-18T12:49:06.117Z,24.00
2018-04-18T12:50:05.307Z,23.90
2018-04-18T12:51:05.619Z,23.90
2018-04-18T12:52:05.751Z,23.90
2018-04-18T12:53:05.737Z,23.90
2018-04-18T12:54:05.741Z,23.90
2018-04-18T12:55:06.317Z,23.90
2018-04-18T12:56:06.331Z,23.90
2018-04-18T12:57:06.550Z,23.90
2018-04-18T12:58:05.435Z,23.90
2018-04-18T12:59:06.052Z,23.90